createdAt,value
2023-05-15T00:00:40.292Z,68335.53
2023-05-15T00:03:07.555Z,68335.34
2023-05-15T00:05:34.869Z,68344.03
2023-05-15T00:08:02.205Z,68339.88
2023-05-15T00:10:29.307Z,68341.56
2023-05-15T00:12:56.375Z,68344.22
2023-05-15T00:15:23.887Z,68331.56
2023-05-15T00:17:51.153Z,68329.84
2023-05-15T00:20:18.301Z,68322.66
2023-05-15T00:22:45.607Z,68321.72
2023-05-15T00:25:15.013Z,68317.00
2023-05-15T00:27:42.427Z,68303.19
2023-05-15T00:30:09.875Z,68300.38
2023-05-15T00:32:37.347Z,68296.78
2023-05-15T00:35:05.338Z,68283.56
2023-05-15T00:37:32.651Z,68281.47
2023-05-15T00:40:00.181Z,68275.81
2023-05-15T00:42:28.006Z,68269.00
2023-05-15T00:44:58.200Z,68272.78
2023-05-15T00:47:27.045Z,68264.84
2023-05-15T00:49:55.588Z,68275.22
2023-05-15T00:52:23.143Z,68276.38
2023-05-15T00:54:50.237Z,68273.72
2023-05-15T00:57:18.884Z,68272.03
2023-05-15T00:59:50.782Z,68265.63
2023-05-15T01:02:19.675Z,68256.72
2023-05-15T01:04:46.866Z,68250.31
2023-05-15T01:07:14.993Z,68235.22
2023-05-15T01:09:54.580Z,68232.75
2023-05-15T01:12:28.651Z,68227.84
2023-05-15T01:15:02.595Z,68225.56
2023-05-15T01:17:31.168Z,68229.34
2023-05-15T01:20:03.237Z,68223.13
2023-05-15T01:22:46.575Z,68221.44
2023-05-15T01:25:44.016Z,68225.00
2023-05-15T01:28:15.624Z,68222.75
2023-05-15T01:30:45.652Z,68226.13
2023-05-15T01:33:19.165Z,68232.75
2023-05-15T01:36:16.425Z,68233.88
2023-05-15T01:38:50.258Z,68242.75
2023-05-15T01:41:28.441Z,68239.53
2023-05-15T01:43:59.231Z,68254.09
2023-05-15T01:46:31.494Z,68251.06
2023-05-15T01:49:01.721Z,68257.88
2023-05-15T01:51:30.958Z,68261.47
2023-05-15T01:53:59.505Z,68260.69
2023-05-15T01:56:27.367Z,68268.63
2023-05-15T01:58:55.522Z,68269.75
2023-05-15T02:01:23.996Z,68271.25
2023-05-15T02:03:53.290Z,68265.03
2023-05-15T02:06:21.666Z,68265.25
2023-05-15T02:08:53.170Z,68271.25
2023-05-15T02:11:23.405Z,68259.94
2023-05-15T02:13:51.693Z,68255.41
2023-05-15T02:16:19.288Z,68257.09
2023-05-15T02:18:46.680Z,68251.66
2023-05-15T02:21:21.491Z,68260.50
2023-05-15T02:24:01.314Z,68260.13
2023-05-15T02:26:51.473Z,68265.41
2023-05-15T02:29:22.907Z,68251.66
2023-05-15T02:32:15.117Z,68252.19
2023-05-15T02:34:50.180Z,68255.22
2023-05-15T02:37:24.543Z,68245.97
2023-05-15T02:39:54.580Z,68245.41
2023-05-15T02:42:23.859Z,68240.88
2023-05-15T02:44:57.973Z,68244.84
2023-05-15T02:47:26.043Z,68243.88
2023-05-15T02:49:55.320Z,68222.16
2023-05-15T02:52:24.306Z,68211.81
2023-05-15T02:54:51.475Z,68206.31
2023-05-15T02:57:18.680Z,68208.03
2023-05-15T02:59:45.792Z,68218.59
2023-05-15T03:02:12.853Z,68223.69
2023-05-15T03:04:40.091Z,68222.75
2023-05-15T03:07:07.244Z,68225.41
2023-05-15T03:09:34.317Z,68230.47
2023-05-15T03:12:01.408Z,68232.19
2023-05-15T03:14:28.564Z,68228.97
2023-05-15T03:16:55.757Z,68230.47
2023-05-15T03:19:22.941Z,68243.88
2023-05-15T03:21:50.121Z,68244.66
2023-05-15T03:24:17.245Z,68242.00
2023-05-15T03:26:45.131Z,68263.91
2023-05-15T03:29:12.124Z,68252.59
2023-05-15T03:31:39.208Z,68257.09
2023-05-15T03:34:06.490Z,68249.00
2023-05-15T03:36:34.385Z,68245.97
2023-05-15T03:39:01.369Z,68259.38
2023-05-15T03:41:37.006Z,68269.59
2023-05-15T03:44:05.285Z,68249.94
2023-05-15T03:46:32.429Z,68257.28
2023-05-15T03:48:59.604Z,68255.59
2023-05-15T03:51:26.830Z,68270.31
2023-05-15T03:53:57.477Z,68260.13
2023-05-15T03:56:25.205Z,68266.75
2023-05-15T03:58:52.654Z,68260.34
2023-05-15T04:01:20.850Z,68254.09
2023-05-15T04:03:51.139Z,68252.19
2023-05-15T04:06:18.351Z,68240.31
2023-05-15T04:08:45.586Z,68252.97
2023-05-15T04:11:13.066Z,68254.84
2023-05-15T04:13:40.177Z,68263.91
2023-05-15T04:16:09.217Z,68270.72
2023-05-15T04:18:37.445Z,68269.94
2023-05-15T04:21:06.848Z,68266.19
2023-05-15T04:23:34.047Z,68267.50
2023-05-15T04:26:01.491Z,68268.63
2023-05-15T04:28:29.316Z,68278.84
2023-05-15T04:30:58.729Z,68284.69
2023-05-15T04:33:25.880Z,68291.84
2023-05-15T04:35:53.212Z,68283.19
2023-05-15T04:38:20.304Z,68278.84
2023-05-15T04:40:47.360Z,68276.19
2023-05-15T04:43:14.813Z,68283.75
2023-05-15T04:45:41.950Z,68277.91
2023-05-15T04:48:09.125Z,68284.50
2023-05-15T04:50:36.888Z,68285.06
2023-05-15T04:53:03.941Z,68288.47
2023-05-15T04:55:32.385Z,68294.50
2023-05-15T04:58:00.628Z,68298.47
2023-05-15T05:00:28.628Z,68305.84
2023-05-15T05:02:56.103Z,68324.72
2023-05-15T05:05:23.546Z,68319.81
2023-05-15T05:07:52.112Z,68321.53
2023-05-15T05:10:19.352Z,68343.47
2023-05-15T05:12:46.525Z,68359.31
2023-05-15T05:15:13.628Z,68375.22
2023-05-15T05:17:46.317Z,68390.34
2023-05-15T05:20:13.543Z,68396.19
2023-05-15T05:22:40.949Z,68403.38
2023-05-15T05:25:09.532Z,68410.19
2023-05-15T05:27:36.631Z,68418.69
2023-05-15T05:30:04.007Z,68426.44
2023-05-15T05:32:31.125Z,68438.16
2023-05-15T05:34:58.385Z,68449.91
2023-05-15T05:37:25.872Z,68457.84
2023-05-15T05:39:53.010Z,68458.78
2023-05-15T05:42:20.043Z,68486.78
2023-05-15T05:44:47.146Z,68487.88
2023-05-15T05:47:17.050Z,68505.31
2023-05-15T05:49:47.743Z,68499.84
2023-05-15T05:52:16.611Z,68516.84
2023-05-15T05:54:46.348Z,68514.78
2023-05-15T05:57:14.447Z,68526.50
2023-05-15T05:59:41.642Z,68543.38
2023-05-15T06:02:09.471Z,68556.03
2023-05-15T06:04:36.555Z,68553.19
2023-05-15T06:07:03.723Z,68558.69
2023-05-15T06:09:30.995Z,68597.09
2023-05-15T06:11:58.256Z,68600.31
2023-05-15T06:14:25.386Z,68591.25
2023-05-15T06:16:52.571Z,68563.78
2023-05-15T06:19:19.793Z,68577.78
2023-05-15T06:21:46.919Z,68589.16
2023-05-15T06:24:14.158Z,68594.06
2023-05-15T06:26:41.267Z,68615.25
2023-05-15T06:29:08.410Z,68624.19
2023-05-15T06:31:35.563Z,68619.06
2023-05-15T06:34:02.921Z,68627.00
2023-05-15T06:36:30.194Z,68593.88
2023-05-15T06:38:57.303Z,68572.88
2023-05-15T06:41:24.401Z,68572.88
2023-05-15T06:43:51.448Z,68582.31
2023-05-15T06:46:21.235Z,68594.63
2023-05-15T06:48:48.294Z,68605.03
2023-05-15T06:51:15.483Z,68620.56
2023-05-15T06:53:42.879Z,68612.44
2023-05-15T06:56:09.927Z,68605.81
2023-05-15T06:58:36.982Z,68604.47
2023-05-15T07:01:04.189Z,68598.25
2023-05-15T07:03:31.250Z,68594.84
2023-05-15T07:05:58.338Z,68600.31
2023-05-15T07:08:25.462Z,68592.56
2023-05-15T07:10:53.560Z,68582.53
2023-05-15T07:13:20.957Z,68596.53
2023-05-15T07:15:48.102Z,68605.44
2023-05-15T07:18:15.192Z,68596.53
2023-05-15T07:20:42.315Z,68594.63
2023-05-15T07:23:09.401Z,68596.34
2023-05-15T07:25:36.566Z,68594.63
2023-05-15T07:28:03.906Z,68595.38
2023-05-15T07:30:31.003Z,68584.63
2023-05-15T07:32:58.089Z,68601.06
2023-05-15T07:35:26.154Z,68611.50
2023-05-15T07:37:53.637Z,68622.84
2023-05-15T07:40:20.801Z,68631.56
2023-05-15T07:42:47.896Z,68618.69
2023-05-15T07:45:14.996Z,68625.31
2023-05-15T07:47:47.221Z,68634.22
2023-05-15T07:50:14.857Z,68642.72
2023-05-15T07:52:43.085Z,68651.81
2023-05-15T07:55:10.940Z,68673.81
2023-05-15T07:57:38.106Z,68645.00
2023-05-15T08:00:10.286Z,68635.53
2023-05-15T08:02:41.560Z,68634.00
2023-05-15T08:05:08.931Z,68639.13
2023-05-15T08:07:36.101Z,68659.56
2023-05-15T08:10:06.299Z,68664.72
2023-05-15T08:12:34.056Z,68674.38
2023-05-15T08:15:01.276Z,68679.88
2023-05-15T08:17:28.628Z,68673.22
2023-05-15T08:19:55.851Z,68680.63
2023-05-15T08:22:22.932Z,68692.00
2023-05-15T08:24:50.015Z,68703.91
2023-05-15T08:27:17.089Z,68708.66
2023-05-15T08:29:45.126Z,68703.13
2023-05-15T08:32:12.243Z,68721.53
2023-05-15T08:34:39.358Z,68722.13
2023-05-15T08:37:07.074Z,68720.03
2023-05-15T08:39:34.380Z,68723.25
2023-05-15T08:42:21.941Z,68713.19
2023-05-15T08:44:49.890Z,68697.69
2023-05-15T08:47:22.120Z,68680.22
2023-05-15T08:50:04.862Z,68681.75
2023-05-15T08:52:33.055Z,68690.66
2023-05-15T08:55:01.128Z,68687.66
2023-05-15T08:57:28.398Z,68678.53
2023-05-15T08:59:59.556Z,68685.53
2023-05-15T09:02:27.173Z,68693.31
2023-05-15T09:04:54.705Z,68713.41
2023-05-15T09:07:21.961Z,68727.78
2023-05-15T09:09:50.474Z,68735.75
2023-05-15T09:12:18.668Z,68759.63
2023-05-15T09:14:45.817Z,68758.69
2023-05-15T09:17:13.149Z,68781.41
2023-05-15T09:19:40.512Z,68814.06
2023-05-15T09:22:21.489Z,68831.06
2023-05-15T09:24:49.206Z,68834.88
2023-05-15T09:27:16.270Z,68858.59
2023-05-15T09:29:43.668Z,68886.88
2023-05-15T09:32:15.245Z,68894.84
2023-05-15T09:34:44.154Z,68902.22
2023-05-15T09:37:27.964Z,68891.41
2023-05-15T09:39:55.032Z,68886.66
2023-05-15T09:42:24.593Z,68867.72
2023-05-15T09:44:51.655Z,68895.75
2023-05-15T09:47:19.657Z,68920.22
2023-05-15T09:49:47.391Z,68949.84
2023-05-15T09:52:16.157Z,68945.50
2023-05-15T09:54:48.838Z,68925.19
2023-05-15T09:57:21.787Z,68903.56
2023-05-15T09:59:49.588Z,68892.34
2023-05-15T10:02:24.805Z,68887.03
2023-05-15T10:04:56.941Z,68899.56
2023-05-15T10:07:35.021Z,68925.19
2023-05-15T10:10:04.237Z,68946.44
2023-05-15T10:12:32.569Z,68987.25
2023-05-15T10:15:01.170Z,69021.41
2023-05-15T10:17:31.734Z,69033.94
2023-05-15T10:20:00.701Z,69049.50
2023-05-15T10:22:30.851Z,69080.84
2023-05-15T10:25:10.238Z,69117.88
2023-05-15T10:27:38.862Z,69134.81
2023-05-15T10:30:09.758Z,69088.25
2023-05-15T10:32:37.559Z,69088.84
2023-05-15T10:35:04.716Z,69127.59
2023-05-15T10:37:32.455Z,69186.31
2023-05-15T10:40:01.517Z,69198.44
2023-05-15T10:42:29.722Z,69189.16
2023-05-15T10:45:00.044Z,69190.84
2023-05-15T10:47:27.284Z,69195.81
2023-05-15T10:49:54.441Z,69217.09
2023-05-15T10:52:21.702Z,69278.13
2023-05-15T10:54:48.861Z,69366.00
2023-05-15T10:57:16.449Z,69394.56
2023-05-15T10:59:44.227Z,69344.13
2023-05-15T11:02:20.768Z,69302.50
2023-05-15T11:04:48.127Z,69316.94
2023-05-15T11:07:17.108Z,69246.00
2023-05-15T11:09:44.308Z,69256.59
2023-05-15T11:12:12.068Z,69279.28
2023-05-15T11:14:39.054Z,69276.41
2023-05-15T11:17:15.309Z,69294.66
2023-05-15T11:19:51.636Z,69280.41
2023-05-15T11:22:27.537Z,69261.41
2023-05-15T11:25:00.482Z,69215.38
2023-05-15T11:27:46.475Z,69163.31
2023-05-15T11:30:22.554Z,69086.94
2023-05-15T11:33:01.141Z,69046.47
2023-05-15T11:35:48.276Z,68995.97
2023-05-15T11:38:18.510Z,68933.00
2023-05-15T11:41:03.552Z,68888.38
2023-05-15T11:43:36.424Z,68862.03
2023-05-15T11:46:03.557Z,68798.50
2023-05-15T11:48:32.637Z,68706.56
2023-05-15T11:51:04.345Z,68622.84
2023-05-15T11:53:33.070Z,68611.69
2023-05-15T11:56:00.872Z,68609.41
2023-05-15T11:58:27.865Z,68623.03
2023-05-15T12:00:55.351Z,68642.91
2023-05-15T12:03:32.129Z,68673.22
2023-05-15T12:06:02.533Z,68713.03
2023-05-15T12:08:37.722Z,68770.41
2023-05-15T12:11:05.995Z,68832.25
2023-05-15T12:13:34.367Z,68863.34
2023-05-15T12:16:03.509Z,68885.72
2023-05-15T12:18:32.544Z,68896.34
2023-05-15T12:21:00.173Z,68914.94
2023-05-15T12:23:28.613Z,68915.09
2023-05-15T12:26:01.723Z,68940.00
2023-05-15T12:28:30.311Z,68947.56
2023-05-15T12:30:59.330Z,68985.13
2023-05-15T12:33:27.088Z,69076.88
2023-05-15T12:35:59.852Z,69168.44
2023-05-15T12:38:28.894Z,69223.53
2023-05-15T12:40:57.360Z,69316.38
2023-05-15T12:43:25.830Z,69386.59
2023-05-15T12:45:54.442Z,69418.69
2023-05-15T12:48:22.263Z,69441.94
2023-05-15T12:50:50.203Z,69359.72
2023-05-15T12:53:17.824Z,69288.25
2023-05-15T12:55:46.261Z,69237.63
2023-05-15T12:58:18.579Z,69201.53
2023-05-15T13:00:50.269Z,69153.22
2023-05-15T13:03:21.121Z,69118.47
2023-05-15T13:05:48.532Z,69089.97
2023-05-15T13:08:18.994Z,69068.88
2023-05-15T13:10:47.758Z,69036.06
2023-05-15T13:13:16.071Z,69012.69
2023-05-15T13:15:45.376Z,68997.69
2023-05-15T13:18:18.212Z,68983.31
2023-05-15T13:20:47.891Z,69021.41
2023-05-15T13:23:18.139Z,69026.72
2023-05-15T13:25:46.341Z,69028.03
2023-05-15T13:28:14.328Z,69035.81
2023-05-15T13:30:42.638Z,69041.34
2023-05-15T13:33:12.137Z,69034.13
2023-05-15T13:35:41.346Z,69032.41
2023-05-15T13:38:11.327Z,69048.16
2023-05-15T13:40:39.371Z,69059.03
2023-05-15T13:43:06.890Z,69072.88
2023-05-15T13:45:34.591Z,69090.19
2023-05-15T13:48:02.019Z,69100.78
2023-05-15T13:50:29.654Z,69094.53
2023-05-15T13:52:56.775Z,69095.88
2023-05-15T13:55:25.714Z,69097.38
2023-05-15T13:57:53.563Z,69136.69
2023-05-15T14:00:21.813Z,69193.56
2023-05-15T14:02:49.557Z,69241.03
2023-05-15T14:05:16.982Z,69240.84
2023-05-15T14:07:44.285Z,69178.31
2023-05-15T14:10:11.793Z,69140.91
2023-05-15T14:12:43.410Z,69141.25
2023-05-15T14:15:11.949Z,69208.78
2023-05-15T14:17:39.999Z,69242.16
2023-05-15T14:20:08.833Z,69272.59
2023-05-15T14:22:36.876Z,69256.09
2023-05-15T14:25:05.481Z,69242.56
2023-05-15T14:27:32.725Z,69230.94
2023-05-15T14:30:00.702Z,69273.19
2023-05-15T14:32:27.812Z,69322.06
2023-05-15T14:34:59.682Z,69333.31
2023-05-15T14:37:27.926Z,69285.56
2023-05-15T14:39:55.073Z,69220.13
2023-05-15T14:42:24.574Z,69215.94
2023-05-15T14:44:51.831Z,69213.09
2023-05-15T14:47:18.926Z,69244.28
2023-05-15T14:49:46.034Z,69271.28
2023-05-15T14:52:13.159Z,69315.63
2023-05-15T14:54:40.270Z,69316.94
2023-05-15T14:57:08.154Z,69341.13
2023-05-15T14:59:35.609Z,69311.22
2023-05-15T15:02:02.817Z,69297.75
2023-05-15T15:04:34.133Z,69277.56
2023-05-15T15:07:04.476Z,69287.09
2023-05-15T15:09:31.790Z,69301.53
2023-05-15T15:11:59.034Z,69300.38
2023-05-15T15:14:26.190Z,69265.56
2023-05-15T15:16:53.825Z,69208.38
2023-05-15T15:19:20.998Z,69176.22
2023-05-15T15:21:48.412Z,69159.50
2023-05-15T15:24:16.022Z,69135.38
2023-05-15T15:26:43.219Z,69117.16
2023-05-15T15:29:10.341Z,69088.84
2023-05-15T15:31:37.469Z,69074.41
2023-05-15T15:34:05.704Z,69058.84
2023-05-15T15:36:33.152Z,69030.91
2023-05-15T15:39:00.548Z,68973.97
2023-05-15T15:41:34.656Z,68937.34
2023-05-15T15:44:04.387Z,68895.75
2023-05-15T15:46:31.542Z,68873.78
2023-05-15T15:49:04.412Z,68836.44
2023-05-15T15:51:33.012Z,68777.81
2023-05-15T15:54:00.254Z,68688.41
2023-05-15T15:56:27.443Z,68644.06
2023-05-15T15:58:54.499Z,68611.88
2023-05-15T16:01:22.526Z,68588.00
2023-05-15T16:03:53.519Z,68577.41
2023-05-15T16:06:22.004Z,68570.59
2023-05-15T16:08:56.531Z,68579.50
2023-05-15T16:11:24.342Z,68594.44
2023-05-15T16:13:51.738Z,68598.41
2023-05-15T16:16:19.678Z,68606.94
2023-05-15T16:18:49.397Z,68618.69
2023-05-15T16:21:16.882Z,68620.38
2023-05-15T16:23:46.690Z,68632.88
2023-05-15T16:26:15.382Z,68662.22
2023-05-15T16:28:44.845Z,68666.81
2023-05-15T16:31:12.686Z,68658.09
2023-05-15T16:33:39.802Z,68652.19
2023-05-15T16:36:07.469Z,68629.09
2023-05-15T16:38:34.943Z,68626.63
2023-05-15T16:41:03.772Z,68627.78
2023-05-15T16:43:30.994Z,68613.75
2023-05-15T16:45:59.030Z,68601.47
2023-05-15T16:48:28.645Z,68581.59
2023-05-15T16:50:56.227Z,68551.09
2023-05-15T16:53:23.534Z,68533.69
2023-05-15T16:55:51.211Z,68536.75
2023-05-15T16:58:18.977Z,68533.72
2023-05-15T17:00:46.641Z,68543.91
2023-05-15T17:03:14.833Z,68546.75
2023-05-15T17:05:42.435Z,68558.50
2023-05-15T17:08:11.990Z,68563.59
2023-05-15T17:10:39.755Z,68571.00
2023-05-15T17:13:08.247Z,68569.66
2023-05-15T17:15:35.685Z,68575.53
2023-05-15T17:18:03.324Z,68577.78
2023-05-15T17:20:30.817Z,68581.59
2023-05-15T17:22:58.653Z,68578.94
2023-05-15T17:25:26.373Z,68588.41
2023-05-15T17:27:57.084Z,68595.38
2023-05-15T17:30:24.664Z,68595.38
2023-05-15T17:32:52.788Z,68606.56
2023-05-15T17:35:20.496Z,68610.91
2023-05-15T17:37:47.972Z,68602.94
2023-05-15T17:40:15.972Z,68603.72
2023-05-15T17:42:44.058Z,68600.69
2023-05-15T17:45:12.472Z,68599.94
2023-05-15T17:47:40.345Z,68597.09
2023-05-15T17:50:08.025Z,68589.91
2023-05-15T17:52:37.711Z,68586.69
2023-05-15T17:55:06.266Z,68569.84
2023-05-15T17:57:33.952Z,68559.63
2023-05-15T18:00:01.781Z,68545.06
2023-05-15T18:02:39.556Z,68539.38
2023-05-15T18:05:10.994Z,68538.63
2023-05-15T18:07:38.402Z,68526.13
2023-05-15T18:10:07.039Z,68521.41
2023-05-15T18:12:35.405Z,68507.19
2023-05-15T18:15:03.135Z,68509.69
2023-05-15T18:17:31.136Z,68506.81
2023-05-15T18:19:58.742Z,68502.66
2023-05-15T18:22:26.562Z,68511.94
2023-05-15T18:24:54.477Z,68513.25
2023-05-15T18:27:22.307Z,68516.28
2023-05-15T18:29:49.913Z,68532.00
2023-05-15T18:32:17.920Z,68553.56
2023-05-15T18:34:47.039Z,68578.75
2023-05-15T18:37:14.802Z,68590.09
2023-05-15T18:39:44.609Z,68581.97
2023-05-15T18:42:12.060Z,68553.00
2023-05-15T18:44:40.180Z,68539.19
2023-05-15T18:47:08.213Z,68529.53
2023-05-15T18:49:35.752Z,68512.69
2023-05-15T18:52:03.412Z,68500.19
2023-05-15T18:54:31.401Z,68508.72
2023-05-15T18:56:59.098Z,68522.16
2023-05-15T18:59:28.991Z,68523.84
2023-05-15T19:01:56.710Z,68524.25
2023-05-15T19:04:24.804Z,68519.88
2023-05-15T19:06:52.676Z,68527.81
2023-05-15T19:09:20.013Z,68544.31
2023-05-15T19:11:51.241Z,68559.03
2023-05-15T19:14:33.131Z,68569.09
2023-05-15T19:17:01.704Z,68568.91
2023-05-15T19:19:29.416Z,68569.28
2023-05-15T19:21:56.973Z,68575.91
2023-05-15T19:24:25.859Z,68567.19
2023-05-15T19:26:53.251Z,68568.34
2023-05-15T19:29:20.744Z,68559.03
2023-05-15T19:31:48.512Z,68551.09
2023-05-15T19:34:16.220Z,68548.84
2023-05-15T19:36:46.010Z,68548.28
2023-05-15T19:39:13.471Z,68551.69
2023-05-15T19:41:41.098Z,68550.53
2023-05-15T19:44:09.002Z,68546.00
2023-05-15T19:46:36.338Z,68551.69
2023-05-15T19:49:03.636Z,68552.25
2023-05-15T19:51:34.453Z,68554.72
2023-05-15T19:54:02.429Z,68564.00
2023-05-15T19:56:30.241Z,68562.84
2023-05-15T19:58:58.155Z,68548.28
2023-05-15T20:01:25.718Z,68543.34
2023-05-15T20:03:53.221Z,68553.75
2023-05-15T20:06:21.279Z,68561.91
2023-05-15T20:08:49.007Z,68567.97
2023-05-15T20:11:16.663Z,68570.41
2023-05-15T20:13:47.088Z,68578.94
2023-05-15T20:16:16.726Z,68571.00
2023-05-15T20:18:45.007Z,68560.38
2023-05-15T20:21:12.697Z,68557.16
2023-05-15T20:23:40.239Z,68565.31
2023-05-15T20:26:08.331Z,68573.06
2023-05-15T20:28:36.138Z,68564.56
2023-05-15T20:31:03.896Z,68560.38
2023-05-15T20:33:31.664Z,68559.81
2023-05-15T20:36:00.301Z,68547.72
2023-05-15T20:38:28.441Z,68549.78
2023-05-15T20:40:56.771Z,68540.13
2023-05-15T20:43:24.841Z,68533.88
2023-05-15T20:45:52.426Z,68535.03
2023-05-15T20:48:19.941Z,68535.97
2023-05-15T20:50:47.667Z,68534.66
2023-05-15T20:53:15.471Z,68538.44
2023-05-15T20:55:43.053Z,68532.38
2023-05-15T20:58:10.566Z,68532.38
2023-05-15T21:00:38.041Z,68536.91
2023-05-15T21:03:10.805Z,68529.53
2023-05-15T21:08:58.025Z,68525.56
2023-05-15T21:11:25.540Z,68526.72
2023-05-15T21:13:52.892Z,68528.59
2023-05-15T21:16:20.633Z,68520.09
2023-05-15T21:18:49.059Z,68525.56
2023-05-15T21:21:17.146Z,68523.28
2023-05-15T21:23:44.654Z,68524.81
2023-05-15T21:26:12.071Z,68516.28
2023-05-15T21:28:39.683Z,68510.63
2023-05-15T21:31:08.473Z,68495.66
2023-05-15T21:33:36.451Z,68493.94
2023-05-15T21:36:04.776Z,68508.91
2023-05-15T21:38:33.124Z,68515.53
2023-05-15T21:41:01.432Z,68514.78
2023-05-15T21:43:28.938Z,68515.16
2023-05-15T21:45:57.117Z,68507.59
2023-05-15T21:48:24.511Z,68515.91
2023-05-15T21:50:56.455Z,68515.34
2023-05-15T21:53:27.213Z,68509.28
2023-05-15T21:56:01.782Z,68512.50
2023-05-15T21:58:29.404Z,68498.50
2023-05-15T22:00:57.421Z,68493.38
2023-05-15T22:03:28.138Z,68496.41
2023-05-15T22:05:55.572Z,68489.22
2023-05-15T22:08:23.187Z,68477.50
2023-05-15T22:10:50.653Z,68474.84
2023-05-15T22:13:18.103Z,68475.59
2023-05-15T22:15:45.589Z,68465.38
2023-05-15T22:18:13.328Z,68469.75
2023-05-15T22:20:41.799Z,68471.44
2023-05-15T22:23:10.080Z,68455.94
2023-05-15T22:25:37.490Z,68446.84
2023-05-15T22:28:04.878Z,68443.44
2023-05-15T22:30:32.388Z,68443.44
2023-05-15T22:32:59.838Z,68434.19
2023-05-15T22:35:28.525Z,68419.81
2023-05-15T22:37:57.213Z,68420.56
2023-05-15T22:40:26.274Z,68413.41
2023-05-15T22:42:53.908Z,68420.38
2023-05-15T22:45:21.759Z,68416.59
2023-05-15T22:47:49.582Z,68412.81
2023-05-15T22:50:17.139Z,68409.03
2023-05-15T22:52:44.539Z,68408.28
2023-05-15T22:55:13.096Z,68405.66
2023-05-15T22:57:40.560Z,68403.75
2023-05-15T23:00:09.931Z,68405.66
2023-05-15T23:02:38.548Z,68404.50
2023-05-15T23:05:06.857Z,68389.00
2023-05-15T23:07:34.392Z,68387.13
2023-05-15T23:10:02.446Z,68379.38
2023-05-15T23:12:29.916Z,68383.72
2023-05-15T23:14:57.385Z,68371.44
2023-05-15T23:17:26.516Z,68373.13
2023-05-15T23:19:54.153Z,68388.63
2023-05-15T23:22:21.772Z,68380.88
2023-05-15T23:24:49.315Z,68382.00
2023-05-15T23:27:16.739Z,68376.16
2023-05-15T23:29:44.321Z,68375.03
2023-05-15T23:32:11.718Z,68370.09
2023-05-15T23:34:39.305Z,68374.06
2023-05-15T23:37:08.806Z,68366.91
2023-05-15T23:39:36.371Z,68370.28
2023-05-15T23:42:03.905Z,68375.03
2023-05-15T23:44:31.510Z,68364.06
2023-05-15T23:46:59.009Z,68362.56
2023-05-15T23:49:27.078Z,68358.75
2023-05-15T23:51:54.537Z,68362.72
2023-05-15T23:54:22.049Z,68358.00
2023-05-15T23:56:50.633Z,68340.81
2023-05-15T23:59:18.490Z,68325.13
